sensor_id;sensor_type;location;lat;lon;timestamp;temperature;humidity
3644;DHT22;1838;50.742;7.158;2023-04-24T00:01:13;12.70;99.90
3644;DHT22;1838;50.742;7.158;2023-04-24T00:03:40;12.70;99.90
3644;DHT22;1838;50.742;7.158;2023-04-24T00:06:06;12.70;99.90
3644;DHT22;1838;50.742;7.158;2023-04-24T00:08:36;12.70;99.90
3644;DHT22;1838;50.742;7.158;2023-04-24T00:11:02;12.70;99.90
3644;DHT22;1838;50.742;7.158;2023-04-24T00:13:27;12.60;99.90
3644;DHT22;1838;50.742;7.158;2023-04-24T00:15:54;12.70;99.90
3644;DHT22;1838;50.742;7.158;2023-04-24T00:18:20;12.70;99.90
3644;DHT22;1838;50.742;7.158;2023-04-24T00:20:45;12.60;99.90
3644;DHT22;1838;50.742;7.158;2023-04-24T00:23:12;12.70;99.90
3644;DHT22;1838;50.742;7.158;2023-04-24T00:25:37;12.80;99.90
3644;DHT22;1838;50.742;7.158;2023-04-24T00:28:03;12.80;99.90
3644;DHT22;1838;50.742;7.158;2023-04-24T00:30:29;12.80;99.90
3644;DHT22;1838;50.742;7.158;2023-04-24T00:32:54;12.70;99.90
3644;DHT22;1838;50.742;7.158;2023-04-24T00:35:20;12.70;99.90
3644;DHT22;1838;50.742;7.158;2023-04-24T00:37:45;12.70;99.90
3644;DHT22;1838;50.742;7.158;2023-04-24T00:40:11;12.80;99.90
3644;DHT22;1838;50.742;7.158;2023-04-24T00:42:37;12.80;99.90
3644;DHT22;1838;50.742;7.158;2023-04-24T00:45:03;12.80;99.90
3644;DHT22;1838;50.742;7.158;2023-04-24T00:47:29;12.80;99.90
3644;DHT22;1838;50.742;7.158;2023-04-24T00:49:55;12.80;99.90
3644;DHT22;1838;50.742;7.158;2023-04-24T00:52:21;12.70;99.90
3644;DHT22;1838;50.742;7.158;2023-04-24T00:54:49;12.80;99.90
3644;DHT22;1838;50.742;7.158;2023-04-24T00:57:15;12.80;99.90
3644;DHT22;1838;50.742;7.158;2023-04-24T00:59:42;12.80;99.90
3644;DHT22;1838;50.742;7.158;2023-04-24T01:02:09;12.90;99.90
3644;DHT22;1838;50.742;7.158;2023-04-24T01:04:36;12.90;99.90
3644;DHT22;1838;50.742;7.158;2023-04-24T01:07:02;12.90;99.90
3644;DHT22;1838;50.742;7.158;2023-04-24T01:09:28;12.90;99.90
3644;DHT22;1838;50.742;7.158;2023-04-24T01:11:54;12.90;99.90
3644;DHT22;1838;50.742;7.158;2023-04-24T01:14:20;12.90;99.90
3644;DHT22;1838;50.742;7.158;2023-04-24T01:16:45;12.90;99.90
3644;DHT22;1838;50.742;7.158;2023-04-24T01:19:11;12.90;99.90
3644;DHT22;1838;50.742;7.158;2023-04-24T01:21:38;12.90;99.90
3644;DHT22;1838;50.742;7.158;2023-04-24T01:24:05;13.00;99.90
3644;DHT22;1838;50.742;7.158;2023-04-24T01:26:31;13.10;99.90
3644;DHT22;1838;50.742;7.158;2023-04-24T01:28:57;13.10;99.90
3644;DHT22;1838;50.742;7.158;2023-04-24T01:31:23;13.00;99.90
3644;DHT22;1838;50.742;7.158;2023-04-24T01:33:49;12.90;99.90
3644;DHT22;1838;50.742;7.158;2023-04-24T01:36:16;12.90;99.90
3644;DHT22;1838;50.742;7.158;2023-04-24T01:38:41;12.80;99.90
3644;DHT22;1838;50.742;7.158;2023-04-24T01:41:07;12.70;99.90
3644;DHT22;1838;50.742;7.158;2023-04-24T01:43:33;12.70;99.90
3644;DHT22;1838;50.742;7.158;2023-04-24T01:45:58;12.60;99.90
3644;DHT22;1838;50.742;7.158;2023-04-24T01:48:24;12.50;99.90
3644;DHT22;1838;50.742;7.158;2023-04-24T01:50:50;12.50;99.90
3644;DHT22;1838;50.742;7.158;2023-04-24T01:53:15;12.50;99.90
3644;DHT22;1838;50.742;7.158;2023-04-24T01:55:41;12.40;99.90
3644;DHT22;1838;50.742;7.158;2023-04-24T01:58:06;12.30;99.90
3644;DHT22;1838;50.742;7.158;2023-04-24T02:00:32;12.30;99.90
3644;DHT22;1838;50.742;7.158;2023-04-24T02:02:57;12.30;99.90
3644;DHT22;1838;50.742;7.158;2023-04-24T02:05:23;12.30;99.90
3644;DHT22;1838;50.742;7.158;2023-04-24T02:07:51;12.30;99.90
3644;DHT22;1838;50.742;7.158;2023-04-24T02:10:16;12.30;99.90
3644;DHT22;1838;50.742;7.158;2023-04-24T02:12:42;12.20;99.90
3644;DHT22;1838;50.742;7.158;2023-04-24T02:15:08;12.20;99.90
3644;DHT22;1838;50.742;7.158;2023-04-24T02:17:34;12.20;99.90
3644;DHT22;1838;50.742;7.158;2023-04-24T02:19:59;12.20;99.90
3644;DHT22;1838;50.742;7.158;2023-04-24T02:22:25;12.20;99.90
3644;DHT22;1838;50.742;7.158;2023-04-24T02:55:09;11.30;99.90
3644;DHT22;1838;50.742;7.158;2023-04-24T02:57:35;11.20;99.90
3644;DHT22;1838;50.742;7.158;2023-04-24T03:00:00;11.10;99.90
3644;DHT22;1838;50.742;7.158;2023-04-24T03:02:26;11.10;99.90
3644;DHT22;1838;50.742;7.158;2023-04-24T03:04:51;11.00;99.90
3644;DHT22;1838;50.742;7.158;2023-04-24T03:07:17;11.00;99.90
3644;DHT22;1838;50.742;7.158;2023-04-24T03:09:46;10.80;99.90
3644;DHT22;1838;50.742;7.158;2023-04-24T03:12:11;10.80;99.90
3644;DHT22;1838;50.742;7.158;2023-04-24T03:14:37;10.70;99.90
3644;DHT22;1838;50.742;7.158;2023-04-24T03:17:02;10.60;99.90
3644;DHT22;1838;50.742;7.158;2023-04-24T03:19:28;10.70;99.90
3644;DHT22;1838;50.742;7.158;2023-04-24T03:21:53;10.60;99.90
3644;DHT22;1838;50.742;7.158;2023-04-24T03:24:19;10.50;99.90
3644;DHT22;1838;50.742;7.158;2023-04-24T03:26:45;10.50;99.90
3644;DHT22;1838;50.742;7.158;2023-04-24T03:29:11;10.50;99.90
3644;DHT22;1838;50.742;7.158;2023-04-24T03:31:36;10.50;99.90
3644;DHT22;1838;50.742;7.158;2023-04-24T03:34:02;10.50;99.90
3644;DHT22;1838;50.742;7.158;2023-04-24T03:36:27;10.40;99.90
3644;DHT22;1838;50.742;7.158;2023-04-24T03:38:53;10.40;99.90
3644;DHT22;1838;50.742;7.158;2023-04-24T03:41:18;10.40;99.90
3644;DHT22;1838;50.742;7.158;2023-04-24T03:43:44;10.40;99.90
3644;DHT22;1838;50.742;7.158;2023-04-24T03:46:10;10.40;99.90
3644;DHT22;1838;50.742;7.158;2023-04-24T03:48:36;10.40;99.90
3644;DHT22;1838;50.742;7.158;2023-04-24T03:51:01;10.30;99.90
3644;DHT22;1838;50.742;7.158;2023-04-24T03:53:27;10.30;99.90
3644;DHT22;1838;50.742;7.158;2023-04-24T03:55:53;10.30;99.90
3644;DHT22;1838;50.742;7.158;2023-04-24T03:58:18;10.20;99.90
3644;DHT22;1838;50.742;7.158;2023-04-24T04:00:44;10.20;99.90
3644;DHT22;1838;50.742;7.158;2023-04-24T04:03:10;10.10;99.90
3644;DHT22;1838;50.742;7.158;2023-04-24T04:05:35;9.90;99.90
3644;DHT22;1838;50.742;7.158;2023-04-24T04:08:01;9.80;99.90
3644;DHT22;1838;50.742;7.158;2023-04-24T04:10:26;9.80;99.90
3644;DHT22;1838;50.742;7.158;2023-04-24T04:12:52;9.80;99.90
3644;DHT22;1838;50.742;7.158;2023-04-24T04:15:17;9.80;99.90
3644;DHT22;1838;50.742;7.158;2023-04-24T04:17:43;9.70;99.90
3644;DHT22;1838;50.742;7.158;2023-04-24T04:20:08;9.70;99.90
3644;DHT22;1838;50.742;7.158;2023-04-24T04:22:36;9.70;99.90
3644;DHT22;1838;50.742;7.158;2023-04-24T04:25:02;9.70;99.90
3644;DHT22;1838;50.742;7.158;2023-04-24T04:27:28;9.70;99.90
3644;DHT22;1838;50.742;7.158;2023-04-24T04:29:54;9.70;99.90
3644;DHT22;1838;50.742;7.158;2023-04-24T04:32:21;9.70;99.90
3644;DHT22;1838;50.742;7.158;2023-04-24T04:34:47;9.60;99.90
3644;DHT22;1838;50.742;7.158;2023-04-24T04:37:15;9.60;99.90
3644;DHT22;1838;50.742;7.158;2023-04-24T04:39:44;9.60;99.90
3644;DHT22;1838;50.742;7.158;2023-04-24T04:42:10;9.60;99.90
3644;DHT22;1838;50.742;7.158;2023-04-24T04:44:35;9.60;99.90
3644;DHT22;1838;50.742;7.158;2023-04-24T04:47:02;9.60;99.90
3644;DHT22;1838;50.742;7.158;2023-04-24T04:49:31;9.60;99.90
3644;DHT22;1838;50.742;7.158;2023-04-24T04:51:56;9.70;99.90
3644;DHT22;1838;50.742;7.158;2023-04-24T04:54:22;9.60;99.90
3644;DHT22;1838;50.742;7.158;2023-04-24T04:56:50;9.70;99.90
3644;DHT22;1838;50.742;7.158;2023-04-24T04:59:16;9.70;99.90
3644;DHT22;1838;50.742;7.158;2023-04-24T05:01:41;9.70;99.90
3644;DHT22;1838;50.742;7.158;2023-04-24T05:04:07;9.80;99.90
3644;DHT22;1838;50.742;7.158;2023-04-24T05:06:33;9.70;99.90
3644;DHT22;1838;50.742;7.158;2023-04-24T05:08:58;9.80;99.90
3644;DHT22;1838;50.742;7.158;2023-04-24T05:11:24;9.80;99.90
3644;DHT22;1838;50.742;7.158;2023-04-24T05:13:49;9.80;99.90
3644;DHT22;1838;50.742;7.158;2023-04-24T05:16:15;9.90;99.90
3644;DHT22;1838;50.742;7.158;2023-04-24T05:18:41;9.80;99.90
3644;DHT22;1838;50.742;7.158;2023-04-24T05:21:06;9.90;99.90
3644;DHT22;1838;50.742;7.158;2023-04-24T05:23:32;9.90;99.90
3644;DHT22;1838;50.742;7.158;2023-04-24T05:25:57;9.90;99.90
3644;DHT22;1838;50.742;7.158;2023-04-24T05:28:23;9.90;99.90
3644;DHT22;1838;50.742;7.158;2023-04-24T05:30:48;9.90;99.90
3644;DHT22;1838;50.742;7.158;2023-04-24T05:33:14;9.90;99.90
3644;DHT22;1838;50.742;7.158;2023-04-24T05:35:40;10.00;99.90
3644;DHT22;1838;50.742;7.158;2023-04-24T05:38:11;10.00;99.90
3644;DHT22;1838;50.742;7.158;2023-04-24T05:40:37;10.10;99.90
3644;DHT22;1838;50.742;7.158;2023-04-24T05:43:02;10.20;99.90
3644;DHT22;1838;50.742;7.158;2023-04-24T05:45:28;10.20;99.90
3644;DHT22;1838;50.742;7.158;2023-04-24T05:47:54;10.20;99.90
3644;DHT22;1838;50.742;7.158;2023-04-24T05:50:20;10.20;99.90
3644;DHT22;1838;50.742;7.158;2023-04-24T05:52:45;10.30;99.90
3644;DHT22;1838;50.742;7.158;2023-04-24T05:55:11;10.30;99.90
3644;DHT22;1838;50.742;7.158;2023-04-24T05:57:37;10.40;99.90
3644;DHT22;1838;50.742;7.158;2023-04-24T06:00:03;10.40;99.90
3644;DHT22;1838;50.742;7.158;2023-04-24T06:02:29;10.40;99.90
3644;DHT22;1838;50.742;7.158;2023-04-24T06:04:58;10.40;99.90
3644;DHT22;1838;50.742;7.158;2023-04-24T06:07:25;10.40;99.90
3644;DHT22;1838;50.742;7.158;2023-04-24T06:09:51;10.40;99.90
3644;DHT22;1838;50.742;7.158;2023-04-24T06:12:17;10.40;99.90
3644;DHT22;1838;50.742;7.158;2023-04-24T06:14:43;10.40;99.90
3644;DHT22;1838;50.742;7.158;2023-04-24T06:17:08;10.50;99.90
3644;DHT22;1838;50.742;7.158;2023-04-24T06:19:34;10.40;99.90
3644;DHT22;1838;50.742;7.158;2023-04-24T06:21:59;10.30;99.90
3644;DHT22;1838;50.742;7.158;2023-04-24T06:24:28;10.30;99.90
3644;DHT22;1838;50.742;7.158;2023-04-24T06:26:54;10.30;99.90
3644;DHT22;1838;50.742;7.158;2023-04-24T06:29:19;10.30;99.90
3644;DHT22;1838;50.742;7.158;2023-04-24T06:31:45;10.30;99.90
3644;DHT22;1838;50.742;7.158;2023-04-24T06:34:10;10.30;99.90
3644;DHT22;1838;50.742;7.158;2023-04-24T06:36:36;10.40;99.90
3644;DHT22;1838;50.742;7.158;2023-04-24T06:39:02;10.50;99.90
3644;DHT22;1838;50.742;7.158;2023-04-24T06:41:28;10.50;99.90
3644;DHT22;1838;50.742;7.158;2023-04-24T06:43:54;10.60;99.90
3644;DHT22;1838;50.742;7.158;2023-04-24T06:46:20;10.60;99.90
3644;DHT22;1838;50.742;7.158;2023-04-24T06:48:49;10.60;99.90
3644;DHT22;1838;50.742;7.158;2023-04-24T06:51:14;10.60;99.90
3644;DHT22;1838;50.742;7.158;2023-04-24T06:53:40;10.70;99.90
3644;DHT22;1838;50.742;7.158;2023-04-24T06:56:06;10.80;99.90
3644;DHT22;1838;50.742;7.158;2023-04-24T06:58:31;10.80;99.90
3644;DHT22;1838;50.742;7.158;2023-04-24T07:00:57;10.80;99.90
3644;DHT22;1838;50.742;7.158;2023-04-24T07:03:22;10.80;99.90
3644;DHT22;1838;50.742;7.158;2023-04-24T07:05:48;10.90;99.90
3644;DHT22;1838;50.742;7.158;2023-04-24T07:08:14;10.90;99.90
3644;DHT22;1838;50.742;7.158;2023-04-24T07:10:42;10.70;99.90
3644;DHT22;1838;50.742;7.158;2023-04-24T07:13:08;10.70;99.90
3644;DHT22;1838;50.742;7.158;2023-04-24T07:15:33;10.70;99.90
3644;DHT22;1838;50.742;7.158;2023-04-24T07:18:00;10.70;99.90
3644;DHT22;1838;50.742;7.158;2023-04-24T07:20:25;10.80;99.90
3644;DHT22;1838;50.742;7.158;2023-04-24T07:22:51;10.90;99.90
3644;DHT22;1838;50.742;7.158;2023-04-24T07:25:19;10.90;99.90
3644;DHT22;1838;50.742;7.158;2023-04-24T07:27:44;10.90;99.90
3644;DHT22;1838;50.742;7.158;2023-04-24T07:30:10;10.90;99.90
3644;DHT22;1838;50.742;7.158;2023-04-24T07:32:36;10.90;99.90
3644;DHT22;1838;50.742;7.158;2023-04-24T07:35:02;11.00;99.90
3644;DHT22;1838;50.742;7.158;2023-04-24T07:37:28;11.00;99.90
3644;DHT22;1838;50.742;7.158;2023-04-24T07:39:54;11.00;99.90
3644;DHT22;1838;50.742;7.158;2023-04-24T07:42:19;11.00;99.90
3644;DHT22;1838;50.742;7.158;2023-04-24T07:44:45;11.00;99.90
3644;DHT22;1838;50.742;7.158;2023-04-24T07:47:13;11.00;99.90
3644;DHT22;1838;50.742;7.158;2023-04-24T07:49:41;10.90;99.90
3644;DHT22;1838;50.742;7.158;2023-04-24T07:52:07;10.90;99.90
3644;DHT22;1838;50.742;7.158;2023-04-24T07:54:33;11.00;99.90
3644;DHT22;1838;50.742;7.158;2023-04-24T07:56:58;10.90;99.90
3644;DHT22;1838;50.742;7.158;2023-04-24T07:59:24;10.90;99.90
3644;DHT22;1838;50.742;7.158;2023-04-24T08:01:49;11.00;99.90
3644;DHT22;1838;50.742;7.158;2023-04-24T08:04:15;11.00;99.90
3644;DHT22;1838;50.742;7.158;2023-04-24T08:06:40;11.00;99.90
3644;DHT22;1838;50.742;7.158;2023-04-24T08:09:06;11.00;99.90
3644;DHT22;1838;50.742;7.158;2023-04-24T08:11:31;11.00;99.90
3644;DHT22;1838;50.742;7.158;2023-04-24T08:13:58;10.90;99.90
3644;DHT22;1838;50.742;7.158;2023-04-24T08:16:23;10.90;99.90
3644;DHT22;1838;50.742;7.158;2023-04-24T08:18:49;10.80;99.90
3644;DHT22;1838;50.742;7.158;2023-04-24T08:21:15;10.70;99.90
3644;DHT22;1838;50.742;7.158;2023-04-24T08:23:42;10.70;99.90
3644;DHT22;1838;50.742;7.158;2023-04-24T08:26:08;10.70;99.90
3644;DHT22;1838;50.742;7.158;2023-04-24T08:28:34;10.70;99.90
3644;DHT22;1838;50.742;7.158;2023-04-24T08:30:59;10.60;99.90
3644;DHT22;1838;50.742;7.158;2023-04-24T08:33:25;10.60;99.90
3644;DHT22;1838;50.742;7.158;2023-04-24T08:35:50;10.50;99.90
3644;DHT22;1838;50.742;7.158;2023-04-24T08:38:16;10.60;99.90
3644;DHT22;1838;50.742;7.158;2023-04-24T08:40:42;10.60;99.90
3644;DHT22;1838;50.742;7.158;2023-04-24T08:43:08;10.50;99.90
3644;DHT22;1838;50.742;7.158;2023-04-24T08:45:35;10.40;99.90
3644;DHT22;1838;50.742;7.158;2023-04-24T08:48:02;10.30;99.90
3644;DHT22;1838;50.742;7.158;2023-04-24T08:50:28;10.20;99.90
3644;DHT22;1838;50.742;7.158;2023-04-24T08:52:54;10.10;99.90
3644;DHT22;1838;50.742;7.158;2023-04-24T08:55:20;10.00;99.90
3644;DHT22;1838;50.742;7.158;2023-04-24T08:57:51;10.00;99.90
3644;DHT22;1838;50.742;7.158;2023-04-24T09:00:19;9.90;99.90
3644;DHT22;1838;50.742;7.158;2023-04-24T09:02:47;9.80;99.90
3644;DHT22;1838;50.742;7.158;2023-04-24T09:05:14;9.80;99.90
3644;DHT22;1838;50.742;7.158;2023-04-24T09:07:44;9.70;99.90
3644;DHT22;1838;50.742;7.158;2023-04-24T09:10:10;9.70;99.90
3644;DHT22;1838;50.742;7.158;2023-04-24T09:12:36;9.70;99.90
3644;DHT22;1838;50.742;7.158;2023-04-24T09:15:02;9.70;99.90
3644;DHT22;1838;50.742;7.158;2023-04-24T09:17:31;9.70;99.90
3644;DHT22;1838;50.742;7.158;2023-04-24T09:19:57;9.70;99.90
3644;DHT22;1838;50.742;7.158;2023-04-24T09:22:23;9.70;99.90
3644;DHT22;1838;50.742;7.158;2023-04-24T09:25:01;9.70;99.90
3644;DHT22;1838;50.742;7.158;2023-04-24T09:27:28;9.70;99.90
3644;DHT22;1838;50.742;7.158;2023-04-24T09:29:58;9.70;99.90
3644;DHT22;1838;50.742;7.158;2023-04-24T09:32:24;9.80;99.90
3644;DHT22;1838;50.742;7.158;2023-04-24T09:35:09;9.80;99.90
3644;DHT22;1838;50.742;7.158;2023-04-24T09:37:38;9.80;99.90
3644;DHT22;1838;50.742;7.158;2023-04-24T09:40:12;9.90;99.90
3644;DHT22;1838;50.742;7.158;2023-04-24T09:42:39;9.90;99.90
3644;DHT22;1838;50.742;7.158;2023-04-24T09:45:09;9.90;99.90
3644;DHT22;1838;50.742;7.158;2023-04-24T09:47:41;9.90;99.90
3644;DHT22;1838;50.742;7.158;2023-04-24T09:50:17;10.00;99.90
3644;DHT22;1838;50.742;7.158;2023-04-24T09:52:45;10.00;99.90
3644;DHT22;1838;50.742;7.158;2023-04-24T09:55:18;10.00;99.90
3644;DHT22;1838;50.742;7.158;2023-04-24T09:57:51;10.00;99.90
3644;DHT22;1838;50.742;7.158;2023-04-24T10:00:19;10.00;99.90
3644;DHT22;1838;50.742;7.158;2023-04-24T10:02:44;10.00;99.90
3644;DHT22;1838;50.742;7.158;2023-04-24T10:05:11;10.00;99.90
3644;DHT22;1838;50.742;7.158;2023-04-24T10:07:37;10.10;99.90
3644;DHT22;1838;50.742;7.158;2023-04-24T10:10:03;10.10;99.90
3644;DHT22;1838;50.742;7.158;2023-04-24T10:12:29;10.20;99.90
3644;DHT22;1838;50.742;7.158;2023-04-24T10:14:56;10.30;99.90
3644;DHT22;1838;50.742;7.158;2023-04-24T10:17:22;10.30;99.90
3644;DHT22;1838;50.742;7.158;2023-04-24T10:19:49;10.30;99.90
3644;DHT22;1838;50.742;7.158;2023-04-24T10:22:15;10.30;99.90
3644;DHT22;1838;50.742;7.158;2023-04-24T10:24:43;10.40;99.90
3644;DHT22;1838;50.742;7.158;2023-04-24T10:27:09;10.50;99.90
3644;DHT22;1838;50.742;7.158;2023-04-24T10:29:35;10.50;99.90
3644;DHT22;1838;50.742;7.158;2023-04-24T10:32:01;10.60;99.90
3644;DHT22;1838;50.742;7.158;2023-04-24T10:34:27;10.60;99.90
3644;DHT22;1838;50.742;7.158;2023-04-24T10:36:53;10.70;99.90
3644;DHT22;1838;50.742;7.158;2023-04-24T10:39:20;10.80;99.90
3644;DHT22;1838;50.742;7.158;2023-04-24T10:41:48;10.90;99.90
3644;DHT22;1838;50.742;7.158;2023-04-24T10:44:15;11.00;99.90
3644;DHT22;1838;50.742;7.158;2023-04-24T10:46:54;11.10;99.90
3644;DHT22;1838;50.742;7.158;2023-04-24T10:49:30;11.30;99.90
3644;DHT22;1838;50.742;7.158;2023-04-24T10:52:01;11.40;99.90
3644;DHT22;1838;50.742;7.158;2023-04-24T10:54:28;11.40;99.90
3644;DHT22;1838;50.742;7.158;2023-04-24T10:59:46;11.40;99.90
3644;DHT22;1838;50.742;7.158;2023-04-24T11:02:14;11.40;99.90
3644;DHT22;1838;50.742;7.158;2023-04-24T11:04:41;11.50;99.90
3644;DHT22;1838;50.742;7.158;2023-04-24T11:07:09;11.50;99.90
3644;DHT22;1838;50.742;7.158;2023-04-24T11:09:35;11.60;99.90
3644;DHT22;1838;50.742;7.158;2023-04-24T11:12:05;11.60;99.90
3644;DHT22;1838;50.742;7.158;2023-04-24T11:17:35;11.60;99.90
3644;DHT22;1838;50.742;7.158;2023-04-24T11:22:35;11.70;99.90
3644;DHT22;1838;50.742;7.158;2023-04-24T11:25:02;11.60;99.90
3644;DHT22;1838;50.742;7.158;2023-04-24T11:27:31;11.70;99.90
3644;DHT22;1838;50.742;7.158;2023-04-24T11:35:15;12.00;99.90
3644;DHT22;1838;50.742;7.158;2023-04-24T11:37:44;12.10;99.90
3644;DHT22;1838;50.742;7.158;2023-04-24T11:40:15;12.20;99.90
3644;DHT22;1838;50.742;7.158;2023-04-24T11:42:45;12.40;99.90
3644;DHT22;1838;50.742;7.158;2023-04-24T11:45:13;12.60;99.90
3644;DHT22;1838;50.742;7.158;2023-04-24T11:47:39;12.80;99.90
3644;DHT22;1838;50.742;7.158;2023-04-24T11:50:07;13.10;99.90
3644;DHT22;1838;50.742;7.158;2023-04-24T11:52:37;13.30;99.90
3644;DHT22;1838;50.742;7.158;2023-04-24T11:55:03;13.40;99.90
3644;DHT22;1838;50.742;7.158;2023-04-24T11:57:29;13.30;99.90
3644;DHT22;1838;50.742;7.158;2023-04-24T12:00:03;13.30;99.90
3644;DHT22;1838;50.742;7.158;2023-04-24T12:02:30;13.20;99.90
3644;DHT22;1838;50.742;7.158;2023-04-24T12:04:56;13.20;99.90
3644;DHT22;1838;50.742;7.158;2023-04-24T12:07:23;13.20;99.90
3644;DHT22;1838;50.742;7.158;2023-04-24T12:09:57;13.20;99.90
3644;DHT22;1838;50.742;7.158;2023-04-24T12:12:27;13.30;99.90
3644;DHT22;1838;50.742;7.158;2023-04-24T12:14:57;13.40;99.90
3644;DHT22;1838;50.742;7.158;2023-04-24T12:17:31;13.50;99.90
3644;DHT22;1838;50.742;7.158;2023-04-24T12:20:03;13.50;99.90
3644;DHT22;1838;50.742;7.158;2023-04-24T12:22:46;13.50;99.90
3644;DHT22;1838;50.742;7.158;2023-04-24T12:25:14;13.50;99.90
3644;DHT22;1838;50.742;7.158;2023-04-24T12:27:40;13.50;99.90
3644;DHT22;1838;50.742;7.158;2023-04-24T12:30:13;13.50;99.90
3644;DHT22;1838;50.742;7.158;2023-04-24T12:32:45;13.50;99.90
3644;DHT22;1838;50.742;7.158;2023-04-24T12:35:11;13.60;99.90
3644;DHT22;1838;50.742;7.158;2023-04-24T12:37:37;13.70;99.90
3644;DHT22;1838;50.742;7.158;2023-04-24T12:40:07;13.60;99.90
3644;DHT22;1838;50.742;7.158;2023-04-24T12:42:33;13.60;99.90
3644;DHT22;1838;50.742;7.158;2023-04-24T12:45:04;13.70;99.90
3644;DHT22;1838;50.742;7.158;2023-04-24T12:47:31;13.70;99.90
3644;DHT22;1838;50.742;7.158;2023-04-24T12:49:57;13.70;99.90
3644;DHT22;1838;50.742;7.158;2023-04-24T12:52:23;13.70;99.90
3644;DHT22;1838;50.742;7.158;2023-04-24T12:54:50;13.70;99.90
3644;DHT22;1838;50.742;7.158;2023-04-24T12:57:16;13.60;99.90
3644;DHT22;1838;50.742;7.158;2023-04-24T12:59:42;13.70;99.90
3644;DHT22;1838;50.742;7.158;2023-04-24T13:02:07;13.90;99.90
3644;DHT22;1838;50.742;7.158;2023-04-24T13:04:34;14.00;99.90
3644;DHT22;1838;50.742;7.158;2023-04-24T13:07:00;14.10;99.90
3644;DHT22;1838;50.742;7.158;2023-04-24T13:09:25;14.30;99.90
3644;DHT22;1838;50.742;7.158;2023-04-24T13:11:51;14.40;99.90
3644;DHT22;1838;50.742;7.158;2023-04-24T13:14:16;14.40;99.90
3644;DHT22;1838;50.742;7.158;2023-04-24T13:16:42;14.40;99.90
3644;DHT22;1838;50.742;7.158;2023-04-24T13:19:07;14.40;99.90
3644;DHT22;1838;50.742;7.158;2023-04-24T13:21:33;14.40;99.90
3644;DHT22;1838;50.742;7.158;2023-04-24T13:23:58;14.30;99.90
3644;DHT22;1838;50.742;7.158;2023-04-24T13:26:24;14.20;99.90
3644;DHT22;1838;50.742;7.158;2023-04-24T13:28:50;14.30;99.90
3644;DHT22;1838;50.742;7.158;2023-04-24T13:31:15;14.30;99.90
3644;DHT22;1838;50.742;7.158;2023-04-24T13:33:42;14.30;99.90
3644;DHT22;1838;50.742;7.158;2023-04-24T13:36:08;14.40;99.90
3644;DHT22;1838;50.742;7.158;2023-04-24T13:38:34;14.60;99.90
3644;DHT22;1838;50.742;7.158;2023-04-24T13:41:00;14.70;99.90
3644;DHT22;1838;50.742;7.158;2023-04-24T13:43:25;14.80;99.90
3644;DHT22;1838;50.742;7.158;2023-04-24T13:45:51;14.80;99.90
3644;DHT22;1838;50.742;7.158;2023-04-24T13:48:17;14.80;99.90
3644;DHT22;1838;50.742;7.158;2023-04-24T13:50:43;14.80;99.90
3644;DHT22;1838;50.742;7.158;2023-04-24T13:53:09;14.90;99.90
3644;DHT22;1838;50.742;7.158;2023-04-24T13:55:35;15.00;99.90
3644;DHT22;1838;50.742;7.158;2023-04-24T13:58:01;15.10;99.90
3644;DHT22;1838;50.742;7.158;2023-04-24T14:00:27;15.40;99.90
3644;DHT22;1838;50.742;7.158;2023-04-24T14:02:53;15.50;99.90
3644;DHT22;1838;50.742;7.158;2023-04-24T14:05:19;15.50;99.90
3644;DHT22;1838;50.742;7.158;2023-04-24T14:07:44;15.50;99.90
3644;DHT22;1838;50.742;7.158;2023-04-24T14:10:10;15.40;99.90
3644;DHT22;1838;50.742;7.158;2023-04-24T14:12:35;15.30;99.90
3644;DHT22;1838;50.742;7.158;2023-04-24T14:15:01;15.30;99.90
3644;DHT22;1838;50.742;7.158;2023-04-24T14:17:27;15.20;99.90
3644;DHT22;1838;50.742;7.158;2023-04-24T14:19:53;14.90;99.90
3644;DHT22;1838;50.742;7.158;2023-04-24T14:22:21;14.80;99.90
3644;DHT22;1838;50.742;7.158;2023-04-24T14:24:46;14.50;99.90
3644;DHT22;1838;50.742;7.158;2023-04-24T14:27:12;14.50;99.90
3644;DHT22;1838;50.742;7.158;2023-04-24T14:29:38;14.50;99.90
3644;DHT22;1838;50.742;7.158;2023-04-24T14:32:03;14.50;99.90
3644;DHT22;1838;50.742;7.158;2023-04-24T14:34:29;14.60;99.90
3644;DHT22;1838;50.742;7.158;2023-04-24T14:36:54;14.70;99.90
3644;DHT22;1838;50.742;7.158;2023-04-24T14:39:20;14.90;99.90
3644;DHT22;1838;50.742;7.158;2023-04-24T14:41:45;15.00;99.90
3644;DHT22;1838;50.742;7.158;2023-04-24T14:44:11;15.00;99.90
3644;DHT22;1838;50.742;7.158;2023-04-24T14:46:37;15.10;99.90
3644;DHT22;1838;50.742;7.158;2023-04-24T14:49:02;15.10;99.90
3644;DHT22;1838;50.742;7.158;2023-04-24T14:51:28;15.20;99.90
3644;DHT22;1838;50.742;7.158;2023-04-24T14:53:53;15.20;99.90
3644;DHT22;1838;50.742;7.158;2023-04-24T14:56:19;15.30;99.90
3644;DHT22;1838;50.742;7.158;2023-04-24T14:58:44;15.30;99.90
3644;DHT22;1838;50.742;7.158;2023-04-24T15:01:10;15.50;99.90
3644;DHT22;1838;50.742;7.158;2023-04-24T15:03:36;15.50;99.90
3644;DHT22;1838;50.742;7.158;2023-04-24T15:06:01;15.60;99.90
3644;DHT22;1838;50.742;7.158;2023-04-24T15:08:27;15.60;99.90
3644;DHT22;1838;50.742;7.158;2023-04-24T15:10:53;15.70;99.90
3644;DHT22;1838;50.742;7.158;2023-04-24T15:13:18;15.80;99.90
3644;DHT22;1838;50.742;7.158;2023-04-24T15:15:46;15.80;99.90
3644;DHT22;1838;50.742;7.158;2023-04-24T15:18:12;15.80;99.90
3644;DHT22;1838;50.742;7.158;2023-04-24T15:20:38;15.90;99.90
3644;DHT22;1838;50.742;7.158;2023-04-24T15:23:08;15.80;99.90
3644;DHT22;1838;50.742;7.158;2023-04-24T15:25:34;15.90;99.90
3644;DHT22;1838;50.742;7.158;2023-04-24T15:28:00;15.90;99.90
3644;DHT22;1838;50.742;7.158;2023-04-24T15:30:26;15.90;99.90
3644;DHT22;1838;50.742;7.158;2023-04-24T15:32:52;15.80;99.90
3644;DHT22;1838;50.742;7.158;2023-04-24T15:35:17;15.80;99.90
3644;DHT22;1838;50.742;7.158;2023-04-24T15:37:43;15.80;99.90
3644;DHT22;1838;50.742;7.158;2023-04-24T15:40:10;15.90;99.90
3644;DHT22;1838;50.742;7.158;2023-04-24T15:42:38;15.90;99.90
3644;DHT22;1838;50.742;7.158;2023-04-24T15:45:04;16.10;99.90
3644;DHT22;1838;50.742;7.158;2023-04-24T15:47:30;16.10;99.90
3644;DHT22;1838;50.742;7.158;2023-04-24T15:49:57;16.20;99.90
3644;DHT22;1838;50.742;7.158;2023-04-24T15:52:22;16.30;99.90
3644;DHT22;1838;50.742;7.158;2023-04-24T15:54:48;16.40;99.90
3644;DHT22;1838;50.742;7.158;2023-04-24T15:57:13;16.50;99.90
3644;DHT22;1838;50.742;7.158;2023-04-24T15:59:39;16.30;99.90
3644;DHT22;1838;50.742;7.158;2023-04-24T16:02:05;16.30;99.90
3644;DHT22;1838;50.742;7.158;2023-04-24T16:04:30;16.10;99.90
3644;DHT22;1838;50.742;7.158;2023-04-24T16:06:56;16.00;99.90
3644;DHT22;1838;50.742;7.158;2023-04-24T16:09:22;15.60;99.90
3644;DHT22;1838;50.742;7.158;2023-04-24T16:11:47;15.60;99.90
3644;DHT22;1838;50.742;7.158;2023-04-24T16:14:13;15.60;99.90
3644;DHT22;1838;50.742;7.158;2023-04-24T16:16:39;15.70;99.90
3644;DHT22;1838;50.742;7.158;2023-04-24T16:19:04;15.70;99.90
3644;DHT22;1838;50.742;7.158;2023-04-24T16:21:32;15.60;99.90
3644;DHT22;1838;50.742;7.158;2023-04-24T16:23:58;15.50;99.90
3644;DHT22;1838;50.742;7.158;2023-04-24T16:26:23;15.50;99.90
3644;DHT22;1838;50.742;7.158;2023-04-24T16:28:49;15.60;99.90
3644;DHT22;1838;50.742;7.158;2023-04-24T16:31:14;15.40;99.90
3644;DHT22;1838;50.742;7.158;2023-04-24T16:33:40;15.40;99.90
3644;DHT22;1838;50.742;7.158;2023-04-24T16:36:05;15.20;99.90
3644;DHT22;1838;50.742;7.158;2023-04-24T16:38:33;15.10;99.90
3644;DHT22;1838;50.742;7.158;2023-04-24T16:40:59;15.00;99.90
3644;DHT22;1838;50.742;7.158;2023-04-24T16:43:24;15.10;99.90